x

Bw Pioneer Buoy - Walker Ridge 249 (42360) Wave Buoy

6:00pm - Mon 6th Jul 2015 All times are UTC.

  • Sig Wave height 0.7ft
  • Wind
  • Air Temp 90°f
  • Sea Pressure 1019.1mb

More Historic Weather Station data

Upgrade to MSW Pro to gain access to the past 30 days of data for over 8000 Wavebouys and Weather Stations around the globe.

Join Pro

Comparision Forecast

View Surf forecast
   
Mon 07/06 6:00pm 0.7ft  -   -  16 mph 1019.1mb - 90f
5:00pm 0.7ft  -   -  4 mph 1019.4mb 94f 90f
4:00pm 0.7ft  -  2 7 mph 1019.7mb 92f 88f
3:00pm 0.7ft  -  2 7 mph 1019.4mb 91f 87f
2:00pm 0.7ft  -  2 9 mph 1019.2mb 89f 86f
1:00pm 0.7ft  -  2 11 mph 1018.5mb 86f 85f
12:00pm 0.3ft  -   -  13 mph 1017.9mb 85f 84f
11:00am 0.7ft  -  2 22 mph 1017mb 85f 84f
10:00am 0.7ft  -  4 13 mph 1016.6mb 85f 84f
9:00am 0.3ft  -  4 11 mph 1017mb 85f 84f
8:00am 0.3ft  -  2 22 mph 1017.2mb 85f 84f
7:00am 0.3ft  -   -  9 mph 1017.9mb 86f 85f
6:00am 0.3ft  -  2
mph
1018.2mb 86f 85f
5:00am 0.3ft  -  2 4 mph 1018.2mb 86f 85f
4:00am 0.3ft  -   -  4 mph 1018.6mb 86f 85f
3:00am 0.3ft  -  2 4 mph 1018.2mb 86f 85f
2:00am 0.3ft  -   -  2 mph 1018.1mb 87f 84f
1:00am 0.3ft  -   -  4 mph 1017.4mb 88f 85f
12:00am 0.3ft  -  2 7 mph 1017mb 90f 85f
Sun 07/05 11:00pm 0.3ft  -  2 7 mph 1016.8mb 92f 85f
10:00pm 0.3ft  -  2 9 mph 1016.8mb - 86f
9:00pm 0.7ft  -  2 22 mph 1017.4mb - 87f
8:00pm 0.3ft  -  2 22 mph 1017.9mb - 87f
7:00pm 0.7ft  -  2 4 mph 1018.5mb - 87f
6:00pm 0.7ft  -   -  4 mph 1019.2mb - 91f
5:00pm 0.7ft  -   -  4 mph 1019.2mb 92f 89f
4:00pm 0.7ft  -   -  4 mph 1019.2mb 90f 89f
3:00pm 0.7ft  -   -  4 mph 1019.1mb 87f 88f
2:00pm 1.6ft 8s 2 7 mph 1019mb 83f 85f
1:00pm 2ft 5s 4 11 mph 1020.2mb 86f 84f
12:00pm 2ft 4s 9 13 mph 1019.8mb 86f 84f
11:00am 2ft 5s 9 11 mph 1019.2mb 87f 83f
10:00am 1.6ft 5s 9 13 mph 1018.7mb 87f 84f
9:00am 2ft 5s 7 11 mph 1018.5mb 87f 84f
8:00am 1.6ft 6s 9 11 mph 1018.2mb 87f 84f
7:00am 2ft 4s 7 11 mph 1018.6mb 87f 84f
6:00am 1.6ft 5s 9 11 mph 1019mb 87f 84f
5:00am 1.6ft 6s 7 11 mph 1018.8mb 87f 84f
4:00am 2ft 5s 4 7 mph 1018.8mb 87f 84f
3:00am 1.6ft 5s 2 4 mph 1018.2mb 87f 84f
2:00am 2ft 5s  -  2 mph 1017.9mb 87f 83f
1:00am 2ft 5s 2 4 mph 1017.6mb 87f 84f
12:00am 2.5ft 5s 2 4 mph 1017.1mb 87f 84f
Sat 07/04 11:00pm 2.5ft 4s 4 7 mph 1017.1mb 87f 85f
10:00pm 2.5ft 5s 7 9 mph 1017.1mb 87f 84f
9:00pm 2.5ft 4s 7 9 mph 1017.6mb 87f 85f
8:00pm 3ft 4s 9 11 mph 1017.9mb 87f 84f
7:00pm 2.5ft 5s 9 11 mph 1018.1mb 87f 84f
6:00pm 3ft 5s 9 11 mph 1018.5mb 87f 84f
5:00pm 3ft 5s 9 11 mph 1019.2mb 86f 84f
4:00pm 3ft 5s 11 13 mph 1019.1mb 86f 84f
3:00pm 3ft 5s 9 13 mph 1018.7mb 86f 84f
2:00pm 3ft 5s 11 13 mph 1018.1mb 86f 84f
1:00pm 2.5ft 4s 11 13 mph 1018mb 86f 84f
12:00pm 2.5ft 5s 11 16 mph 1017.4mb 86f 84f
11:00am 2.5ft 5s 11 13 mph 1017.1mb 86f 84f
10:00am 2.5ft 4s 13 18 mph 1016.6mb 86f 84f
9:00am 2.5ft 5s 13 16 mph 1016.6mb 86f 83f
8:00am 2.5ft 5s 13 18 mph 1017mb 86f 84f
7:00am 2.5ft 4s 13 18 mph 1017.1mb 86f 84f
6:00am 2ft 5s 13 18 mph 1017.2mb 87f 84f
5:00am 2.5ft 5s 11 13 mph 1017.6mb 87f 84f
4:00am 2ft 5s 11 13 mph 1017.6mb - 84f
3:00am 2.5ft 5s 9 11 mph 1017.5mb 87f 84f
2:00am 2.5ft 5s 11 13 mph 1016.8mb 87f 84f
1:00am 3ft 5s 7 9 mph 1016.5mb 87f 84f
12:00am 2.5ft 5s 7 9 mph 1016.4mb 87f 84f
Fri 07/03 11:00pm 2.5ft 5s 4 7 mph 1016.6mb 87f 84f
10:00pm 2.5ft 5s 7 11 mph 1017mb 87f 85f
9:00pm 3ft 5s 7 11 mph 1017.2mb 87f 85f
8:00pm 2.5ft 5s 9 13 mph 1017.5mb 87f 84f
7:00pm 2.5ft 5s 11 13 mph 1017.7mb 87f 84f
6:00pm 3ft 6s 9 11 mph 1018.3mb 87f 84f